sensor_id;sensor_type;location;lat;lon;timestamp;pressure;altitude;pressure_sealevel;temperature;humidity
8477;BME280;4275;42.854;23.222;2023-12-20T00:01:18;51062.50;;;-141.02;100.00
8477;BME280;4275;42.854;23.222;2023-12-20T00:03:45;50750.75;;;-141.02;100.00
8477;BME280;4275;42.854;23.222;2023-12-20T00:06:12;50081.19;;;-141.02;100.00
8477;BME280;4275;42.854;23.222;2023-12-20T00:08:39;50275.50;;;-141.02;100.00
8477;BME280;4275;42.854;23.222;2023-12-20T00:11:06;50531.38;;;-141.02;100.00
8477;BME280;4275;42.854;23.222;2023-12-20T00:13:33;51455.09;;;-141.02;100.00
8477;BME280;4275;42.854;23.222;2023-12-20T00:16:01;52252.00;;;-141.02;100.00
8477;BME280;4275;42.854;23.222;2023-12-20T00:18:28;53108.78;;;-141.02;100.00
8477;BME280;4275;42.854;23.222;2023-12-20T00:20:55;53919.56;;;-141.02;100.00
8477;BME280;4275;42.854;23.222;2023-12-20T00:23:22;54547.53;;;-141.02;100.00
8477;BME280;4275;42.854;23.222;2023-12-20T00:25:49;54526.31;;;-141.02;100.00
8477;BME280;4275;42.854;23.222;2023-12-20T00:28:16;54707.41;;;-141.02;100.00
8477;BME280;4275;42.854;23.222;2023-12-20T00:30:43;54574.50;;;-141.02;100.00
8477;BME280;4275;42.854;23.222;2023-12-20T00:33:12;55040.72;;;-141.02;100.00
8477;BME280;4275;42.854;23.222;2023-12-20T00:35:39;54794.09;;;-141.02;100.00
8477;BME280;4275;42.854;23.222;2023-12-20T00:38:06;54792.19;;;-141.02;100.00
8477;BME280;4275;42.854;23.222;2023-12-20T00:40:34;54855.75;;;-141.02;100.00
8477;BME280;4275;42.854;23.222;2023-12-20T00:43:01;55354.78;;;-141.02;100.00
8477;BME280;4275;42.854;23.222;2023-12-20T00:45:28;56185.38;;;-141.02;100.00
8477;BME280;4275;42.854;23.222;2023-12-20T00:47:55;56686.53;;;-141.02;100.00
8477;BME280;4275;42.854;23.222;2023-12-20T00:50:23;55618.78;;;-141.02;100.00
8477;BME280;4275;42.854;23.222;2023-12-20T00:52:50;55173.66;;;-141.02;100.00
8477;BME280;4275;42.854;23.222;2023-12-20T00:55:17;54680.44;;;-141.02;100.00
8477;BME280;4275;42.854;23.222;2023-12-20T00:57:44;54817.22;;;-141.02;100.00
8477;BME280;4275;42.854;23.222;2023-12-20T01:00:11;55067.69;;;-141.02;100.00
8477;BME280;4275;42.854;23.222;2023-12-20T01:02:38;55587.94;;;-141.02;100.00
8477;BME280;4275;42.854;23.222;2023-12-20T01:05:06;56008.06;;;-141.02;100.00
8477;BME280;4275;42.854;23.222;2023-12-20T01:07:36;56640.25;;;-141.02;100.00
8477;BME280;4275;42.854;23.222;2023-12-20T01:10:03;56940.97;;;-141.02;100.00
8477;BME280;4275;42.854;23.222;2023-12-20T01:12:30;57180.03;;;-141.02;100.00
8477;BME280;4275;42.854;23.222;2023-12-20T01:14:57;57006.53;;;-141.02;100.00
8477;BME280;4275;42.854;23.222;2023-12-20T01:17:24;57253.28;;;-141.02;100.00
8477;BME280;4275;42.854;23.222;2023-12-20T01:19:51;57746.88;;;-141.02;100.00
8477;BME280;4275;42.854;23.222;2023-12-20T01:22:18;57746.88;;;-141.02;100.00
8477;BME280;4275;42.854;23.222;2023-12-20T01:24:46;57993.72;;;-141.02;100.00
8477;BME280;4275;42.854;23.222;2023-12-20T01:27:13;57993.72;;;-141.02;100.00
8477;BME280;4275;42.854;23.222;2023-12-20T01:29:40;57500.06;;;-141.02;100.00
8477;BME280;4275;42.854;23.222;2023-12-20T01:32:07;57253.28;;;-141.02;100.00
8477;BME280;4275;42.854;23.222;2023-12-20T01:34:34;57253.28;;;-141.02;100.00
8477;BME280;4275;42.854;23.222;2023-12-20T01:37:01;57172.31;;;-141.02;100.00
8477;BME280;4275;42.854;23.222;2023-12-20T01:39:28;56343.41;;;-141.02;100.00
8477;BME280;4275;42.854;23.222;2023-12-20T01:41:57;55227.63;;;-141.02;100.00
8477;BME280;4275;42.854;23.222;2023-12-20T01:44:24;55322.03;;;-141.02;100.00
8477;BME280;4275;42.854;23.222;2023-12-20T01:46:50;55106.22;;;-141.02;100.00
8477;BME280;4275;42.854;23.222;2023-12-20T01:49:18;54616.88;;;-141.02;100.00
8477;BME280;4275;42.854;23.222;2023-12-20T01:51:45;54555.22;;;-141.02;100.00
8477;BME280;4275;42.854;23.222;2023-12-20T01:54:12;54212.34;;;-141.02;100.00
8477;BME280;4275;42.854;23.222;2023-12-20T01:56:39;53334.09;;;-141.02;100.00
8477;BME280;4275;42.854;23.222;2023-12-20T01:59:10;53407.28;;;-141.02;100.00
8477;BME280;4275;42.854;23.222;2023-12-20T02:01:38;53314.84;;;-141.02;100.00
8477;BME280;4275;42.854;23.222;2023-12-20T02:04:05;54701.63;;;-141.02;100.00
8477;BME280;4275;42.854;23.222;2023-12-20T02:06:33;56879.28;;;-141.02;100.00
8477;BME280;4275;42.854;23.222;2023-12-20T02:09:00;56948.69;;;-141.02;100.00
8477;BME280;4275;42.854;23.222;2023-12-20T02:11:27;57162.69;;;-141.02;100.00
8477;BME280;4275;42.854;23.222;2023-12-20T02:13:55;56956.41;;;-141.02;100.00
8477;BME280;4275;42.854;23.222;2023-12-20T02:16:23;56405.09;;;-141.02;100.00
8477;BME280;4275;42.854;23.222;2023-12-20T02:18:50;56703.88;;;-141.02;100.00
8477;BME280;4275;42.854;23.222;2023-12-20T02:21:17;57006.53;;;-141.02;100.00
8477;BME280;4275;42.854;23.222;2023-12-20T02:23:45;57253.28;;;-141.02;100.00
8477;BME280;4275;42.854;23.222;2023-12-20T02:26:12;57461.53;;;-141.02;100.00
8477;BME280;4275;42.854;23.222;2023-12-20T02:28:39;58240.56;;;-141.02;100.00
8477;BME280;4275;42.854;23.222;2023-12-20T02:31:06;57993.72;;;-141.02;100.00
8477;BME280;4275;42.854;23.222;2023-12-20T02:33:33;57500.06;;;-141.02;100.00
8477;BME280;4275;42.854;23.222;2023-12-20T02:36:00;57006.53;;;-141.02;100.00
8477;BME280;4275;42.854;23.222;2023-12-20T02:38:26;57006.53;;;-141.02;100.00
8477;BME280;4275;42.854;23.222;2023-12-20T02:40:55;56759.78;;;-141.02;100.00
8477;BME280;4275;42.854;23.222;2023-12-20T02:43:22;56875.44;;;-141.02;100.00
8477;BME280;4275;42.854;23.222;2023-12-20T02:45:48;57500.06;;;-141.02;100.00
8477;BME280;4275;42.854;23.222;2023-12-20T02:48:15;56987.25;;;-141.02;100.00
8477;BME280;4275;42.854;23.222;2023-12-20T02:50:42;57253.28;;;-141.02;100.00
8477;BME280;4275;42.854;23.222;2023-12-20T02:53:09;56987.25;;;-141.02;100.00
8477;BME280;4275;42.854;23.222;2023-12-20T02:55:36;56759.78;;;-141.02;100.00
8477;BME280;4275;42.854;23.222;2023-12-20T02:58:05;56887.00;;;-141.02;100.00
8477;BME280;4275;42.854;23.222;2023-12-20T03:00:31;56713.50;;;-141.02;100.00
8477;BME280;4275;42.854;23.222;2023-12-20T03:02:58;56054.31;;;-141.02;100.00
8477;BME280;4275;42.854;23.222;2023-12-20T03:05:26;55811.50;;;-141.02;100.00
8477;BME280;4275;42.854;23.222;2023-12-20T03:07:53;55977.22;;;-141.02;100.00
8477;BME280;4275;42.854;23.222;2023-12-20T03:10:19;55796.06;;;-141.02;100.00
8477;BME280;4275;42.854;23.222;2023-12-20T03:12:46;55333.59;;;-141.02;100.00
8477;BME280;4275;42.854;23.222;2023-12-20T03:15:15;55117.78;;;-141.02;100.00
8477;BME280;4275;42.854;23.222;2023-12-20T03:17:42;55638.06;;;-141.02;100.00
8477;BME280;4275;42.854;23.222;2023-12-20T03:20:09;56462.91;;;-141.02;100.00
8477;BME280;4275;42.854;23.222;2023-12-20T03:22:36;56607.50;;;-141.02;100.00
8477;BME280;4275;42.854;23.222;2023-12-20T03:25:03;56759.78;;;-141.02;100.00
8477;BME280;4275;42.854;23.222;2023-12-20T03:27:30;56740.50;;;-141.02;100.00
8477;BME280;4275;42.854;23.222;2023-12-20T03:29:57;56721.22;;;-141.02;100.00
8477;BME280;4275;42.854;23.222;2023-12-20T03:32:25;56759.78;;;-141.02;100.00
8477;BME280;4275;42.854;23.222;2023-12-20T03:34:52;56570.88;;;-141.02;100.00
8477;BME280;4275;42.854;23.222;2023-12-20T03:37:19;56622.91;;;-141.02;100.00
8477;BME280;4275;42.854;23.222;2023-12-20T03:39:46;56933.25;;;-141.02;100.00
8477;BME280;4275;42.854;23.222;2023-12-20T03:42:13;57133.75;;;-141.02;100.00
8477;BME280;4275;42.854;23.222;2023-12-20T03:44:39;57253.28;;;-141.02;100.00
8477;BME280;4275;42.854;23.222;2023-12-20T03:47:07;57253.28;;;-141.02;100.00
8477;BME280;4275;42.854;23.222;2023-12-20T03:49:36;57245.56;;;-141.02;100.00
8477;BME280;4275;42.854;23.222;2023-12-20T03:52:04;57253.28;;;-141.02;100.00
8477;BME280;4275;42.854;23.222;2023-12-20T03:54:31;57224.38;;;-141.02;100.00
8477;BME280;4275;42.854;23.222;2023-12-20T03:56:58;57006.53;;;-141.02;100.00
8477;BME280;4275;42.854;23.222;2023-12-20T03:59:25;57145.31;;;-141.02;100.00
8477;BME280;4275;42.854;23.222;2023-12-20T04:01:52;57006.53;;;-141.02;100.00
8477;BME280;4275;42.854;23.222;2023-12-20T04:04:19;56513.03;;;-141.02;100.00
8477;BME280;4275;42.854;23.222;2023-12-20T04:06:47;56890.84;;;-141.02;100.00
8477;BME280;4275;42.854;23.222;2023-12-20T04:09:14;57172.31;;;-141.02;100.00
8477;BME280;4275;42.854;23.222;2023-12-20T04:11:41;57253.28;;;-141.02;100.00
8477;BME280;4275;42.854;23.222;2023-12-20T04:14:08;56266.31;;;-141.02;100.00
8477;BME280;4275;42.854;23.222;2023-12-20T04:16:35;56347.28;;;-141.02;100.00
8477;BME280;4275;42.854;23.222;2023-12-20T04:19:02;57253.28;;;-141.02;100.00
8477;BME280;4275;42.854;23.222;2023-12-20T04:21:29;57006.53;;;-141.02;100.00
8477;BME280;4275;42.854;23.222;2023-12-20T04:23:58;57207.03;;;-141.02;100.00
8477;BME280;4275;42.854;23.222;2023-12-20T04:26:25;56967.97;;;-141.02;100.00
8477;BME280;4275;42.854;23.222;2023-12-20T04:28:51;56850.38;;;-141.02;100.00
8477;BME280;4275;42.854;23.222;2023-12-20T04:31:18;57006.53;;;-141.02;100.00
8477;BME280;4275;42.854;23.222;2023-12-20T04:33:45;56940.97;;;-141.02;100.00
8477;BME280;4275;42.854;23.222;2023-12-20T04:36:12;56601.72;;;-141.02;100.00
8477;BME280;4275;42.854;23.222;2023-12-20T04:38:39;56680.75;;;-141.02;100.00
8477;BME280;4275;42.854;23.222;2023-12-20T04:41:08;55379.84;;;-141.02;100.00
8477;BME280;4275;42.854;23.222;2023-12-20T04:43:34;55181.38;;;-141.02;100.00
8477;BME280;4275;42.854;23.222;2023-12-20T04:46:01;54717.03;;;-141.02;100.00
8477;BME280;4275;42.854;23.222;2023-12-20T04:48:28;54582.19;;;-141.02;100.00
8477;BME280;4275;42.854;23.222;2023-12-20T04:50:55;55217.97;;;-141.02;100.00
8477;BME280;4275;42.854;23.222;2023-12-20T04:53:22;55796.06;;;-141.02;100.00
8477;BME280;4275;42.854;23.222;2023-12-20T04:55:49;55229.53;;;-141.02;100.00
8477;BME280;4275;42.854;23.222;2023-12-20T04:58:18;54613.03;;;-141.02;100.00
8477;BME280;4275;42.854;23.222;2023-12-20T05:00:44;54431.94;;;-141.02;100.00
8477;BME280;4275;42.854;23.222;2023-12-20T05:03:11;55083.09;;;-141.02;100.00
8477;BME280;4275;42.854;23.222;2023-12-20T05:05:39;55298.91;;;-141.02;100.00
8477;BME280;4275;42.854;23.222;2023-12-20T05:08:06;55244.97;;;-141.02;100.00
8477;BME280;4275;42.854;23.222;2023-12-20T05:10:33;54437.72;;;-141.02;100.00
8477;BME280;4275;42.854;23.222;2023-12-20T05:13:00;54231.59;;;-141.02;100.00
8477;BME280;4275;42.854;23.222;2023-12-20T05:15:28;54293.25;;;-141.02;100.00
8477;BME280;4275;42.854;23.222;2023-12-20T05:17:55;54561.00;;;-141.02;100.00
8477;BME280;4275;42.854;23.222;2023-12-20T05:20:22;55231.47;;;-141.02;100.00
8477;BME280;4275;42.854;23.222;2023-12-20T05:22:49;55402.97;;;-141.02;100.00
8477;BME280;4275;42.854;23.222;2023-12-20T05:25:16;55514.72;;;-141.02;100.00
8477;BME280;4275;42.854;23.222;2023-12-20T05:27:43;54928.97;;;-141.02;100.00
8477;BME280;4275;42.854;23.222;2023-12-20T05:30:11;54566.78;;;-141.02;100.00
8477;BME280;4275;42.854;23.222;2023-12-20T05:32:39;55009.88;;;-141.02;100.00
8477;BME280;4275;42.854;23.222;2023-12-20T05:35:06;56285.59;;;-141.02;100.00
8477;BME280;4275;42.854;23.222;2023-12-20T05:37:33;56262.47;;;-141.02;100.00
8477;BME280;4275;42.854;23.222;2023-12-20T05:40:00;56701.94;;;-141.02;100.00
8477;BME280;4275;42.854;23.222;2023-12-20T05:42:27;57480.81;;;-141.02;100.00
8477;BME280;4275;42.854;23.222;2023-12-20T05:44:54;58487.41;;;-141.02;100.00
8477;BME280;4275;42.854;23.222;2023-12-20T05:47:21;59228.09;;;-141.02;100.00
8477;BME280;4275;42.854;23.222;2023-12-20T05:49:50;60709.94;;;-141.02;100.00
8477;BME280;4275;42.854;23.222;2023-12-20T05:52:17;61698.22;;;-141.02;100.00
8477;BME280;4275;42.854;23.222;2023-12-20T05:54:44;61945.31;;;-141.02;100.00
8477;BME280;4275;42.854;23.222;2023-12-20T05:57:10;62192.44;;;-141.02;100.00
8477;BME280;4275;42.854;23.222;2023-12-20T05:59:37;63181.16;;;-141.02;100.00
8477;BME280;4275;42.854;23.222;2023-12-20T06:02:05;64170.13;;;-141.02;100.00
8477;BME280;4275;42.854;23.222;2023-12-20T06:04:32;64417.41;;;-141.02;100.00
8477;BME280;4275;42.854;23.222;2023-12-20T06:07:00;64417.41;;;-141.02;100.00
8477;BME280;4275;42.854;23.222;2023-12-20T06:09:27;64912.06;;;-141.02;100.00
8477;BME280;4275;42.854;23.222;2023-12-20T06:11:54;64417.41;;;-141.02;100.00
8477;BME280;4275;42.854;23.222;2023-12-20T06:14:21;64417.41;;;-141.02;100.00
8477;BME280;4275;42.854;23.222;2023-12-20T06:16:48;64170.13;;;-141.02;100.00
8477;BME280;4275;42.854;23.222;2023-12-20T06:19:15;64912.06;;;-141.02;100.00
8477;BME280;4275;42.854;23.222;2023-12-20T06:21:42;65901.53;;;-141.02;100.00
8477;BME280;4275;42.854;23.222;2023-12-20T06:24:10;65406.75;;;-141.02;100.00
8477;BME280;4275;42.854;23.222;2023-12-20T06:26:37;65406.75;;;-141.02;100.00
8477;BME280;4275;42.854;23.222;2023-12-20T06:29:04;66148.94;;;-141.02;100.00
8477;BME280;4275;42.854;23.222;2023-12-20T06:31:31;66148.94;;;-141.02;100.00
8477;BME280;4275;42.854;23.222;2023-12-20T06:33:58;66148.94;;;-141.02;100.00
8477;BME280;4275;42.854;23.222;2023-12-20T06:36:25;66148.94;;;-141.02;100.00
8477;BME280;4275;42.854;23.222;2023-12-20T06:38:52;66891.31;;;-141.02;100.00
8477;BME280;4275;42.854;23.222;2023-12-20T06:41:21;68128.91;;;-141.02;100.00
8477;BME280;4275;42.854;23.222;2023-12-20T06:43:50;68871.72;;;-141.02;100.00
8477;BME280;4275;42.854;23.222;2023-12-20T06:46:17;68624.09;;;-141.02;100.00
8477;BME280;4275;42.854;23.222;2023-12-20T06:48:44;68128.91;;;-141.02;100.00
8477;BME280;4275;42.854;23.222;2023-12-20T06:51:12;68624.09;;;-141.02;100.00
8477;BME280;4275;42.854;23.222;2023-12-20T06:53:39;69119.34;;;-141.02;100.00
8477;BME280;4275;42.854;23.222;2023-12-20T06:56:06;69119.34;;;-141.02;100.00
8477;BME280;4275;42.854;23.222;2023-12-20T06:58:35;69366.97;;;-141.02;100.00
8477;BME280;4275;42.854;23.222;2023-12-20T07:01:03;70605.50;;;-141.02;100.00
8477;BME280;4275;42.854;23.222;2023-12-20T07:03:30;70605.50;;;-141.02;100.00
8477;BME280;4275;42.854;23.222;2023-12-20T07:05:57;71101.03;;;-141.02;100.00
8477;BME280;4275;42.854;23.222;2023-12-20T07:08:25;70357.75;;;-141.02;100.00
8477;BME280;4275;42.854;23.222;2023-12-20T07:10:51;69862.34;;;-141.02;100.00
8477;BME280;4275;42.854;23.222;2023-12-20T07:13:18;69862.34;;;-141.02;100.00
8477;BME280;4275;42.854;23.222;2023-12-20T07:15:47;70853.25;;;-141.02;100.00
8477;BME280;4275;42.854;23.222;2023-12-20T07:18:14;70110.03;;;-141.02;100.00
8477;BME280;4275;42.854;23.222;2023-12-20T07:20:40;69862.34;;;-141.02;100.00
8477;BME280;4275;42.854;23.222;2023-12-20T07:23:08;70357.75;;;-141.02;100.00
8477;BME280;4275;42.854;23.222;2023-12-20T07:25:35;70605.50;;;-141.02;100.00
8477;BME280;4275;42.854;23.222;2023-12-20T07:28:02;69366.97;;;-141.02;100.00
8477;BME280;4275;42.854;23.222;2023-12-20T07:30:29;70605.50;;;-141.02;100.00
8477;BME280;4275;42.854;23.222;2023-12-20T07:32:58;70110.03;;;-141.02;100.00
8477;BME280;4275;42.854;23.222;2023-12-20T07:35:25;69862.34;;;-141.02;100.00
8477;BME280;4275;42.854;23.222;2023-12-20T07:37:52;69614.66;;;-141.02;100.00
8477;BME280;4275;42.854;23.222;2023-12-20T07:40:18;69614.66;;;-141.02;100.00
8477;BME280;4275;42.854;23.222;2023-12-20T07:42:45;70853.25;;;-141.02;100.00
8477;BME280;4275;42.854;23.222;2023-12-20T07:45:12;70357.75;;;-141.02;100.00
8477;BME280;4275;42.854;23.222;2023-12-20T07:47:40;69366.97;;;-141.02;100.00
8477;BME280;4275;42.854;23.222;2023-12-20T07:50:08;69862.34;;;-141.02;100.00
8477;BME280;4275;42.854;23.222;2023-12-20T07:52:35;71596.63;;;-141.02;100.00
8477;BME280;4275;42.854;23.222;2023-12-20T07:55:02;72835.97;;;-141.02;100.00
8477;BME280;4275;42.854;23.222;2023-12-20T07:57:29;71844.47;;;-141.02;100.00
8477;BME280;4275;42.854;23.222;2023-12-20T07:59:56;73331.81;;;-141.02;100.00
8477;BME280;4275;42.854;23.222;2023-12-20T08:02:23;74075.72;;;-141.02;100.00
8477;BME280;4275;42.854;23.222;2023-12-20T08:04:50;73083.88;;;-141.02;100.00
8477;BME280;4275;42.854;23.222;2023-12-20T08:07:18;73331.81;;;-141.02;100.00
8477;BME280;4275;42.854;23.222;2023-12-20T08:09:45;72835.97;;;-141.02;100.00
8477;BME280;4275;42.854;23.222;2023-12-20T08:12:12;72835.97;;;-141.02;100.00
8477;BME280;4275;42.854;23.222;2023-12-20T08:14:39;72092.31;;;-141.02;100.00
8477;BME280;4275;42.854;23.222;2023-12-20T08:17:06;74075.72;;;-141.02;100.00
8477;BME280;4275;42.854;23.222;2023-12-20T08:19:33;73331.81;;;-141.02;100.00
8477;BME280;4275;42.854;23.222;2023-12-20T08:22:00;73331.81;;;-141.02;100.00
8477;BME280;4275;42.854;23.222;2023-12-20T08:24:29;70605.50;;;-141.02;100.00
8477;BME280;4275;42.854;23.222;2023-12-20T08:26:56;71101.03;;;-141.02;100.00
8477;BME280;4275;42.854;23.222;2023-12-20T08:29:23;70110.03;;;-141.02;100.00
8477;BME280;4275;42.854;23.222;2023-12-20T08:31:52;69366.97;;;-141.02;100.00
8477;BME280;4275;42.854;23.222;2023-12-20T08:34:20;69862.34;;;-141.02;100.00
8477;BME280;4275;42.854;23.222;2023-12-20T08:36:47;67386.28;;;-141.02;100.00
8477;BME280;4275;42.854;23.222;2023-12-20T08:39:14;67138.78;;;-141.02;100.00
8477;BME280;4275;42.854;23.222;2023-12-20T08:41:42;65654.13;;;-141.02;100.00
8477;BME280;4275;42.854;23.222;2023-12-20T08:44:09;65654.13;;;-141.02;100.00
8477;BME280;4275;42.854;23.222;2023-12-20T08:46:36;65901.53;;;-141.02;100.00
8477;BME280;4275;42.854;23.222;2023-12-20T08:49:03;66891.31;;;-141.02;100.00
8477;BME280;4275;42.854;23.222;2023-12-20T08:51:30;68128.91;;;-141.02;100.00
8477;BME280;4275;42.854;23.222;2023-12-20T08:53:57;69366.97;;;-141.02;100.00
8477;BME280;4275;42.854;23.222;2023-12-20T08:56:24;71348.81;;;-141.02;100.00
8477;BME280;4275;42.854;23.222;2023-12-20T08:58:52;72092.31;;;-141.02;100.00
8477;BME280;4275;42.854;23.222;2023-12-20T09:01:19;69366.97;;;-141.02;100.00
8477;BME280;4275;42.854;23.222;2023-12-20T09:03:46;67138.78;;;-141.02;100.00
8477;BME280;4275;42.854;23.222;2023-12-20T09:06:13;63922.84;;;-141.02;100.00
8477;BME280;4275;42.854;23.222;2023-12-20T09:08:41;62439.59;;;-141.02;100.00
8477;BME280;4275;42.854;23.222;2023-12-20T09:11:07;60957.00;;;-141.02;100.00
8477;BME280;4275;42.854;23.222;2023-12-20T09:13:34;60709.94;;;-141.02;100.00
8477;BME280;4275;42.854;23.222;2023-12-20T09:16:03;60709.94;;;-141.02;100.00
8477;BME280;4275;42.854;23.222;2023-12-20T09:18:30;61945.31;;;-141.02;100.00
8477;BME280;4275;42.854;23.222;2023-12-20T09:20:57;63181.16;;;-141.02;100.00
8477;BME280;4275;42.854;23.222;2023-12-20T09:23:24;63922.84;;;-141.02;100.00
8477;BME280;4275;42.854;23.222;2023-12-20T09:25:51;63675.59;;;-141.02;100.00
8477;BME280;4275;42.854;23.222;2023-12-20T09:28:18;63922.84;;;-141.02;100.00
8477;BME280;4275;42.854;23.222;2023-12-20T09:30:45;65159.41;;;-141.02;100.00
8477;BME280;4275;42.854;23.222;2023-12-20T09:33:14;65654.13;;;-141.02;100.00
8477;BME280;4275;42.854;23.222;2023-12-20T09:35:41;66148.94;;;-141.02;100.00
8477;BME280;4275;42.854;23.222;2023-12-20T09:38:09;66148.94;;;-141.02;100.00
8477;BME280;4275;42.854;23.222;2023-12-20T09:40:36;67386.28;;;-141.02;100.00
8477;BME280;4275;42.854;23.222;2023-12-20T09:43:10;67881.38;;;-141.02;100.00
8477;BME280;4275;42.854;23.222;2023-12-20T09:45:38;68128.91;;;-141.02;100.00
8477;BME280;4275;42.854;23.222;2023-12-20T09:48:07;67386.28;;;-141.02;100.00
8477;BME280;4275;42.854;23.222;2023-12-20T09:50:37;65159.41;;;-141.02;100.00
8477;BME280;4275;42.854;23.222;2023-12-20T09:53:05;64170.13;;;-141.02;100.00
8477;BME280;4275;42.854;23.222;2023-12-20T09:55:36;64664.72;;;-141.02;100.00
8477;BME280;4275;42.854;23.222;2023-12-20T09:58:03;62686.75;;;-141.02;100.00
8477;BME280;4275;42.854;23.222;2023-12-20T10:00:31;62192.44;;;-141.02;100.00
8477;BME280;4275;42.854;23.222;2023-12-20T10:02:59;62686.75;;;-141.02;100.00
8477;BME280;4275;42.854;23.222;2023-12-20T10:05:28;62439.59;;;-141.02;100.00
8477;BME280;4275;42.854;23.222;2023-12-20T10:07:57;62686.75;;;-141.02;100.00
8477;BME280;4275;42.854;23.222;2023-12-20T10:10:25;59721.97;;;-141.02;100.00
8477;BME280;4275;42.854;23.222;2023-12-20T10:13:02;60709.94;;;-141.02;100.00
8477;BME280;4275;42.854;23.222;2023-12-20T10:15:29;60957.00;;;-141.02;100.00
8477;BME280;4275;42.854;23.222;2023-12-20T10:17:56;61204.03;;;-141.02;100.00
8477;BME280;4275;42.854;23.222;2023-12-20T10:20:23;62192.44;;;-141.02;100.00
8477;BME280;4275;42.854;23.222;2023-12-20T10:22:51;61698.22;;;-141.02;100.00
8477;BME280;4275;42.854;23.222;2023-12-20T10:25:20;63181.16;;;-141.02;100.00
8477;BME280;4275;42.854;23.222;2023-12-20T10:27:49;63181.16;;;-141.02;100.00
8477;BME280;4275;42.854;23.222;2023-12-20T10:30:16;59721.97;;;-141.02;100.00
8477;BME280;4275;42.854;23.222;2023-12-20T10:32:43;57652.41;;;-141.02;100.00
8477;BME280;4275;42.854;23.222;2023-12-20T10:35:10;57264.84;;;-141.02;100.00
8477;BME280;4275;42.854;23.222;2023-12-20T10:37:37;55316.25;;;-141.02;100.00
8477;BME280;4275;42.854;23.222;2023-12-20T10:40:06;55659.25;;;-141.02;100.00
8477;BME280;4275;42.854;23.222;2023-12-20T10:42:35;54963.66;;;-141.02;100.00
8477;BME280;4275;42.854;23.222;2023-12-20T10:45:03;53709.63;;;-141.02;100.00
8477;BME280;4275;42.854;23.222;2023-12-20T10:47:31;55902.06;;;-141.02;100.00
8477;BME280;4275;42.854;23.222;2023-12-20T10:49:59;57741.09;;;-141.02;100.00
8477;BME280;4275;42.854;23.222;2023-12-20T10:52:27;61204.03;;;-141.02;100.00
8477;BME280;4275;42.854;23.222;2023-12-20T10:54:56;59228.09;;;-141.02;100.00
8477;BME280;4275;42.854;23.222;2023-12-20T10:57:26;55788.34;;;-141.02;100.00
8477;BME280;4275;42.854;23.222;2023-12-20T11:00:00;58649.41;;;-141.02;100.00
8477;BME280;4275;42.854;23.222;2023-12-20T11:02:31;59475.03;;;-141.02;100.00
8477;BME280;4275;42.854;23.222;2023-12-20T11:05:05;60709.94;;;-141.02;100.00
8477;BME280;4275;42.854;23.222;2023-12-20T11:07:40;58205.84;;;-141.02;100.00
8477;BME280;4275;42.854;23.222;2023-12-20T11:10:14;52278.97;;;-141.02;100.00
8477;BME280;4275;42.854;23.222;2023-12-20T11:12:48;51639.88;;;-141.02;100.00
8477;BME280;4275;42.854;23.222;2023-12-20T11:15:20;51081.75;;;-141.02;100.00
8477;BME280;4275;42.854;23.222;2023-12-20T11:17:54;51239.53;;;-141.02;100.00
8477;BME280;4275;42.854;23.222;2023-12-20T11:20:22;51245.31;;;-141.02;100.00
8477;BME280;4275;42.854;23.222;2023-12-20T11:22:53;54314.44;;;-141.02;100.00
8477;BME280;4275;42.854;23.222;2023-12-20T11:25:21;52090.31;;;-141.02;100.00
8477;BME280;4275;42.854;23.222;2023-12-20T11:28:08;53484.31;;;-141.02;100.00
8477;BME280;4275;42.854;23.222;2023-12-20T11:30:46;52762.19;;;-141.02;100.00
8477;BME280;4275;42.854;23.222;2023-12-20T11:33:14;53788.59;;;-141.02;100.00
8477;BME280;4275;42.854;23.222;2023-12-20T11:35:41;54391.47;;;-141.02;100.00
8477;BME280;4275;42.854;23.222;2023-12-20T11:38:09;57037.38;;;-141.02;100.00
8477;BME280;4275;42.854;23.222;2023-12-20T11:40:37;56840.72;;;-141.02;100.00
8477;BME280;4275;42.854;23.222;2023-12-20T11:43:04;57820.16;;;-141.02;100.00
8477;BME280;4275;42.854;23.222;2023-12-20T11:45:30;57500.06;;;-141.02;100.00
8477;BME280;4275;42.854;23.222;2023-12-20T11:47:59;59721.97;;;-141.02;100.00
8477;BME280;4275;42.854;23.222;2023-12-20T11:50:26;59228.09;;;-141.02;100.00
8477;BME280;4275;42.854;23.222;2023-12-20T11:52:54;61204.03;;;-141.02;100.00
8477;BME280;4275;42.854;23.222;2023-12-20T11:55:21;58734.28;;;-141.02;100.00
8477;BME280;4275;42.854;23.222;2023-12-20T11:57:49;55372.13;;;-141.02;100.00
8477;BME280;4275;42.854;23.222;2023-12-20T12:00:17;55734.41;;;-141.02;100.00
8477;BME280;4275;42.854;23.222;2023-12-20T12:02:55;55456.91;;;-141.02;100.00
8477;BME280;4275;42.854;23.222;2023-12-20T12:05:24;54967.50;;;-141.02;100.00
8477;BME280;4275;42.854;23.222;2023-12-20T12:07:51;53900.31;;;-141.02;100.00
8477;BME280;4275;42.854;23.222;2023-12-20T12:10:18;55495.44;;;-141.02;100.00
8477;BME280;4275;42.854;23.222;2023-12-20T12:12:46;55884.72;;;-141.02;100.00
8477;BME280;4275;42.854;23.222;2023-12-20T12:15:14;59721.97;;;-141.02;100.00
8477;BME280;4275;42.854;23.222;2023-12-20T12:17:41;57993.72;;;-141.02;100.00
8477;BME280;4275;42.854;23.222;2023-12-20T12:20:09;58734.28;;;-141.02;100.00
8477;BME280;4275;42.854;23.222;2023-12-20T12:22:37;58408.34;;;-141.02;100.00
8477;BME280;4275;42.854;23.222;2023-12-20T12:25:11;57214.72;;;-141.02;100.00
8477;BME280;4275;42.854;23.222;2023-12-20T12:27:42;57860.66;;;-141.02;100.00
8477;BME280;4275;42.854;23.222;2023-12-20T12:30:10;55969.50;;;-141.02;100.00
8477;BME280;4275;42.854;23.222;2023-12-20T12:32:38;55075.41;;;-141.02;100.00
8477;BME280;4275;42.854;23.222;2023-12-20T12:35:06;56829.16;;;-141.02;100.00
8477;BME280;4275;42.854;23.222;2023-12-20T12:37:35;59721.97;;;-141.02;100.00
8477;BME280;4275;42.854;23.222;2023-12-20T12:40:06;58938.75;;;-141.02;100.00
8477;BME280;4275;42.854;23.222;2023-12-20T12:42:33;58734.28;;;-141.02;100.00